sensor_id;sensor_type;location;lat;lon;timestamp;P1;durP1;ratioP1;P2;durP2;ratioP2
71176;SDS011;58877;51.992;4.504;2023-07-31T00:01:47;11.52;;;8.11;;
71176;SDS011;58877;51.992;4.504;2023-07-31T00:04:13;8.96;;;6.68;;
71176;SDS011;58877;51.992;4.504;2023-07-31T00:06:43;10.00;;;7.31;;
71176;SDS011;58877;51.992;4.504;2023-07-31T00:09:10;10.19;;;7.53;;
71176;SDS011;58877;51.992;4.504;2023-07-31T00:11:39;10.37;;;7.68;;
71176;SDS011;58877;51.992;4.504;2023-07-31T00:14:06;8.07;;;6.24;;
71176;SDS011;58877;51.992;4.504;2023-07-31T00:16:33;8.66;;;6.74;;
71176;SDS011;58877;51.992;4.504;2023-07-31T00:19:00;10.36;;;7.76;;
71176;SDS011;58877;51.992;4.504;2023-07-31T00:21:33;9.70;;;7.21;;
71176;SDS011;58877;51.992;4.504;2023-07-31T00:23:59;11.36;;;8.34;;
71176;SDS011;58877;51.992;4.504;2023-07-31T00:26:27;9.72;;;7.40;;
71176;SDS011;58877;51.992;4.504;2023-07-31T00:28:53;8.92;;;6.79;;
71176;SDS011;58877;51.992;4.504;2023-07-31T00:31:21;9.84;;;7.36;;
71176;SDS011;58877;51.992;4.504;2023-07-31T00:33:50;11.17;;;8.11;;
71176;SDS011;58877;51.992;4.504;2023-07-31T00:36:16;10.59;;;7.64;;
71176;SDS011;58877;51.992;4.504;2023-07-31T00:38:43;11.46;;;8.43;;
71176;SDS011;58877;51.992;4.504;2023-07-31T00:41:10;10.34;;;7.79;;
71176;SDS011;58877;51.992;4.504;2023-07-31T00:43:36;9.28;;;7.19;;
71176;SDS011;58877;51.992;4.504;2023-07-31T00:46:02;10.64;;;8.05;;
71176;SDS011;58877;51.992;4.504;2023-07-31T00:48:28;12.38;;;9.24;;
71176;SDS011;58877;51.992;4.504;2023-07-31T00:50:54;11.07;;;8.36;;
71176;SDS011;58877;51.992;4.504;2023-07-31T00:53:22;12.63;;;9.12;;
71176;SDS011;58877;51.992;4.504;2023-07-31T00:55:51;11.87;;;8.58;;
71176;SDS011;58877;51.992;4.504;2023-07-31T00:58:21;9.98;;;7.42;;
71176;SDS011;58877;51.992;4.504;2023-07-31T01:03:34;7.27;;;5.54;;
71176;SDS011;58877;51.992;4.504;2023-07-31T01:11:53;6.23;;;5.05;;
71176;SDS011;58877;51.992;4.504;2023-07-31T01:14:32;5.93;;;4.84;;
71176;SDS011;58877;51.992;4.504;2023-07-31T01:16:58;5.95;;;4.79;;
71176;SDS011;58877;51.992;4.504;2023-07-31T01:19:24;7.59;;;6.02;;
71176;SDS011;58877;51.992;4.504;2023-07-31T01:25:00;8.90;;;7.10;;
71176;SDS011;58877;51.992;4.504;2023-07-31T01:27:44;8.31;;;6.72;;
71176;SDS011;58877;51.992;4.504;2023-07-31T01:30:21;9.93;;;7.63;;
71176;SDS011;58877;51.992;4.504;2023-07-31T01:32:52;10.25;;;7.73;;
71176;SDS011;58877;51.992;4.504;2023-07-31T01:35:22;11.48;;;8.28;;
71176;SDS011;58877;51.992;4.504;2023-07-31T01:37:48;10.22;;;7.48;;
71176;SDS011;58877;51.992;4.504;2023-07-31T01:40:17;12.98;;;9.25;;
71176;SDS011;58877;51.992;4.504;2023-07-31T01:42:43;11.21;;;8.29;;
71176;SDS011;58877;51.992;4.504;2023-07-31T01:45:14;9.89;;;7.49;;
71176;SDS011;58877;51.992;4.504;2023-07-31T01:47:43;9.58;;;7.29;;
71176;SDS011;58877;51.992;4.504;2023-07-31T01:50:13;9.61;;;7.19;;
71176;SDS011;58877;51.992;4.504;2023-07-31T01:52:47;8.82;;;6.70;;
71176;SDS011;58877;51.992;4.504;2023-07-31T01:55:13;8.42;;;6.65;;
71176;SDS011;58877;51.992;4.504;2023-07-31T01:57:42;7.83;;;6.33;;
71176;SDS011;58877;51.992;4.504;2023-07-31T02:00:10;9.04;;;7.08;;
71176;SDS011;58877;51.992;4.504;2023-07-31T02:02:36;10.44;;;7.91;;
71176;SDS011;58877;51.992;4.504;2023-07-31T02:05:23;9.59;;;7.52;;
71176;SDS011;58877;51.992;4.504;2023-07-31T02:07:57;10.84;;;8.32;;
71176;SDS011;58877;51.992;4.504;2023-07-31T02:10:23;9.72;;;7.43;;
71176;SDS011;58877;51.992;4.504;2023-07-31T02:12:52;9.68;;;7.44;;
71176;SDS011;58877;51.992;4.504;2023-07-31T02:15:17;10.44;;;8.07;;
71176;SDS011;58877;51.992;4.504;2023-07-31T02:17:43;9.37;;;7.50;;
71176;SDS011;58877;51.992;4.504;2023-07-31T02:20:09;8.10;;;6.51;;
71176;SDS011;58877;51.992;4.504;2023-07-31T02:22:35;9.60;;;7.47;;
71176;SDS011;58877;51.992;4.504;2023-07-31T02:25:04;11.74;;;8.74;;
71176;SDS011;58877;51.992;4.504;2023-07-31T02:27:35;11.56;;;8.45;;
71176;SDS011;58877;51.992;4.504;2023-07-31T02:30:29;11.16;;;8.42;;
71176;SDS011;58877;51.992;4.504;2023-07-31T02:32:54;9.44;;;7.37;;
71176;SDS011;58877;51.992;4.504;2023-07-31T02:35:20;8.44;;;6.68;;
71176;SDS011;58877;51.992;4.504;2023-07-31T02:37:46;8.28;;;6.52;;
71176;SDS011;58877;51.992;4.504;2023-07-31T02:40:14;8.76;;;6.87;;
71176;SDS011;58877;51.992;4.504;2023-07-31T02:42:49;8.48;;;6.76;;
71176;SDS011;58877;51.992;4.504;2023-07-31T02:45:15;9.23;;;7.36;;
71176;SDS011;58877;51.992;4.504;2023-07-31T02:47:44;7.00;;;5.81;;
71176;SDS011;58877;51.992;4.504;2023-07-31T02:50:15;8.11;;;6.91;;
71176;SDS011;58877;51.992;4.504;2023-07-31T02:52:41;7.32;;;6.18;;
71176;SDS011;58877;51.992;4.504;2023-07-31T02:55:07;7.36;;;6.10;;
71176;SDS011;58877;51.992;4.504;2023-07-31T02:57:38;8.51;;;6.78;;
71176;SDS011;58877;51.992;4.504;2023-07-31T03:00:07;8.75;;;6.81;;
71176;SDS011;58877;51.992;4.504;2023-07-31T03:02:36;7.77;;;6.19;;
71176;SDS011;58877;51.992;4.504;2023-07-31T03:05:04;6.71;;;5.37;;
71176;SDS011;58877;51.992;4.504;2023-07-31T03:07:33;8.97;;;6.99;;
71176;SDS011;58877;51.992;4.504;2023-07-31T03:09:59;8.21;;;6.66;;
71176;SDS011;58877;51.992;4.504;2023-07-31T03:12:24;8.22;;;6.58;;
71176;SDS011;58877;51.992;4.504;2023-07-31T03:14:56;7.73;;;6.39;;
71176;SDS011;58877;51.992;4.504;2023-07-31T03:17:22;7.52;;;6.14;;
71176;SDS011;58877;51.992;4.504;2023-07-31T03:19:48;9.01;;;7.12;;
71176;SDS011;58877;51.992;4.504;2023-07-31T03:22:23;8.50;;;6.69;;
71176;SDS011;58877;51.992;4.504;2023-07-31T03:24:53;9.63;;;7.23;;
71176;SDS011;58877;51.992;4.504;2023-07-31T03:27:19;8.21;;;6.25;;
71176;SDS011;58877;51.992;4.504;2023-07-31T03:29:45;8.09;;;6.27;;
71176;SDS011;58877;51.992;4.504;2023-07-31T03:32:11;7.15;;;5.72;;
71176;SDS011;58877;51.992;4.504;2023-07-31T03:34:37;7.68;;;6.14;;
71176;SDS011;58877;51.992;4.504;2023-07-31T03:37:03;8.51;;;6.52;;
71176;SDS011;58877;51.992;4.504;2023-07-31T03:39:30;8.04;;;6.11;;
71176;SDS011;58877;51.992;4.504;2023-07-31T03:41:56;8.03;;;6.33;;
71176;SDS011;58877;51.992;4.504;2023-07-31T03:44:24;6.70;;;5.41;;
71176;SDS011;58877;51.992;4.504;2023-07-31T03:46:53;6.35;;;5.29;;
71176;SDS011;58877;51.992;4.504;2023-07-31T03:49:25;6.11;;;4.98;;
71176;SDS011;58877;51.992;4.504;2023-07-31T03:51:53;7.13;;;5.77;;
71176;SDS011;58877;51.992;4.504;2023-07-31T03:54:25;7.37;;;5.77;;
71176;SDS011;58877;51.992;4.504;2023-07-31T03:56:51;8.17;;;6.30;;
71176;SDS011;58877;51.992;4.504;2023-07-31T03:59:18;6.45;;;5.15;;
71176;SDS011;58877;51.992;4.504;2023-07-31T04:01:44;6.22;;;5.04;;
71176;SDS011;58877;51.992;4.504;2023-07-31T04:04:11;4.63;;;3.79;;
71176;SDS011;58877;51.992;4.504;2023-07-31T04:06:37;4.24;;;3.57;;
71176;SDS011;58877;51.992;4.504;2023-07-31T04:09:04;3.89;;;3.41;;
71176;SDS011;58877;51.992;4.504;2023-07-31T04:11:30;3.58;;;3.24;;
71176;SDS011;58877;51.992;4.504;2023-07-31T04:13:57;3.68;;;3.35;;
71176;SDS011;58877;51.992;4.504;2023-07-31T04:16:28;3.17;;;2.86;;
71176;SDS011;58877;51.992;4.504;2023-07-31T04:18:55;2.85;;;2.64;;
71176;SDS011;58877;51.992;4.504;2023-07-31T04:21:20;3.31;;;3.05;;
71176;SDS011;58877;51.992;4.504;2023-07-31T04:23:46;3.25;;;3.02;;
71176;SDS011;58877;51.992;4.504;2023-07-31T04:26:12;3.16;;;2.95;;
71176;SDS011;58877;51.992;4.504;2023-07-31T04:28:38;2.77;;;2.61;;
71176;SDS011;58877;51.992;4.504;2023-07-31T04:31:03;2.12;;;2.02;;
71176;SDS011;58877;51.992;4.504;2023-07-31T04:33:29;2.32;;;2.25;;
71176;SDS011;58877;51.992;4.504;2023-07-31T04:35:55;2.42;;;2.37;;
71176;SDS011;58877;51.992;4.504;2023-07-31T04:38:21;2.33;;;2.28;;
71176;SDS011;58877;51.992;4.504;2023-07-31T04:40:56;2.15;;;2.09;;
71176;SDS011;58877;51.992;4.504;2023-07-31T04:43:21;2.26;;;2.19;;
71176;SDS011;58877;51.992;4.504;2023-07-31T04:45:47;2.30;;;2.25;;
71176;SDS011;58877;51.992;4.504;2023-07-31T04:48:15;2.65;;;2.60;;
71176;SDS011;58877;51.992;4.504;2023-07-31T04:50:40;2.63;;;2.58;;
71176;SDS011;58877;51.992;4.504;2023-07-31T04:53:06;3.15;;;3.09;;
71176;SDS011;58877;51.992;4.504;2023-07-31T04:55:32;2.65;;;2.59;;
71176;SDS011;58877;51.992;4.504;2023-07-31T04:57:58;2.65;;;2.58;;
71176;SDS011;58877;51.992;4.504;2023-07-31T05:00:24;2.72;;;2.64;;
71176;SDS011;58877;51.992;4.504;2023-07-31T05:02:50;2.68;;;2.65;;
71176;SDS011;58877;51.992;4.504;2023-07-31T05:05:15;3.20;;;3.10;;
71176;SDS011;58877;51.992;4.504;2023-07-31T05:07:41;2.75;;;2.68;;
71176;SDS011;58877;51.992;4.504;2023-07-31T05:10:07;2.75;;;2.71;;
71176;SDS011;58877;51.992;4.504;2023-07-31T05:12:33;2.92;;;2.86;;
71176;SDS011;58877;51.992;4.504;2023-07-31T05:14:58;2.47;;;2.37;;
71176;SDS011;58877;51.992;4.504;2023-07-31T05:17:24;2.68;;;2.55;;
71176;SDS011;58877;51.992;4.504;2023-07-31T05:19:50;2.53;;;2.38;;
71176;SDS011;58877;51.992;4.504;2023-07-31T05:22:15;2.48;;;2.37;;
71176;SDS011;58877;51.992;4.504;2023-07-31T05:24:41;2.52;;;2.46;;
71176;SDS011;58877;51.992;4.504;2023-07-31T05:27:07;2.11;;;2.07;;
71176;SDS011;58877;51.992;4.504;2023-07-31T05:29:33;1.90;;;1.86;;
71176;SDS011;58877;51.992;4.504;2023-07-31T05:31:58;2.29;;;2.23;;
71176;SDS011;58877;51.992;4.504;2023-07-31T05:34:24;1.88;;;1.83;;
71176;SDS011;58877;51.992;4.504;2023-07-31T05:36:50;1.98;;;1.92;;
71176;SDS011;58877;51.992;4.504;2023-07-31T05:39:15;1.95;;;1.89;;
71176;SDS011;58877;51.992;4.504;2023-07-31T05:41:41;1.90;;;1.85;;
71176;SDS011;58877;51.992;4.504;2023-07-31T05:44:09;1.95;;;1.91;;
71176;SDS011;58877;51.992;4.504;2023-07-31T05:46:34;1.79;;;1.75;;
71176;SDS011;58877;51.992;4.504;2023-07-31T05:49:00;1.84;;;1.80;;
71176;SDS011;58877;51.992;4.504;2023-07-31T05:51:26;1.71;;;1.68;;
71176;SDS011;58877;51.992;4.504;2023-07-31T05:53:52;1.81;;;1.77;;
71176;SDS011;58877;51.992;4.504;2023-07-31T05:56:18;2.01;;;1.97;;
71176;SDS011;58877;51.992;4.504;2023-07-31T05:58:44;2.11;;;2.06;;
71176;SDS011;58877;51.992;4.504;2023-07-31T06:01:12;1.79;;;1.74;;
71176;SDS011;58877;51.992;4.504;2023-07-31T06:03:38;1.76;;;1.70;;
71176;SDS011;58877;51.992;4.504;2023-07-31T06:06:04;1.92;;;1.85;;
71176;SDS011;58877;51.992;4.504;2023-07-31T06:08:30;1.46;;;1.41;;
71176;SDS011;58877;51.992;4.504;2023-07-31T06:10:56;1.82;;;1.76;;
71176;SDS011;58877;51.992;4.504;2023-07-31T06:13:22;1.47;;;1.42;;
71176;SDS011;58877;51.992;4.504;2023-07-31T06:15:47;1.47;;;1.43;;
71176;SDS011;58877;51.992;4.504;2023-07-31T06:18:13;1.69;;;1.66;;
71176;SDS011;58877;51.992;4.504;2023-07-31T06:20:39;1.46;;;1.43;;
71176;SDS011;58877;51.992;4.504;2023-07-31T06:23:05;1.54;;;1.49;;
71176;SDS011;58877;51.992;4.504;2023-07-31T06:25:31;1.45;;;1.41;;
71176;SDS011;58877;51.992;4.504;2023-07-31T06:27:57;1.31;;;1.28;;
71176;SDS011;58877;51.992;4.504;2023-07-31T06:30:22;1.20;;;1.18;;
71176;SDS011;58877;51.992;4.504;2023-07-31T06:32:48;1.00;;;0.98;;
71176;SDS011;58877;51.992;4.504;2023-07-31T06:35:13;1.21;;;1.17;;
71176;SDS011;58877;51.992;4.504;2023-07-31T06:37:39;1.32;;;1.27;;
71176;SDS011;58877;51.992;4.504;2023-07-31T06:40:06;1.17;;;1.13;;
71176;SDS011;58877;51.992;4.504;2023-07-31T06:42:34;1.02;;;0.99;;
71176;SDS011;58877;51.992;4.504;2023-07-31T06:45:00;1.09;;;1.07;;
71176;SDS011;58877;51.992;4.504;2023-07-31T06:47:26;1.01;;;0.98;;
71176;SDS011;58877;51.992;4.504;2023-07-31T06:49:57;0.88;;;0.86;;
71176;SDS011;58877;51.992;4.504;2023-07-31T06:52:22;0.89;;;0.87;;
71176;SDS011;58877;51.992;4.504;2023-07-31T06:55:00;0.92;;;0.90;;
71176;SDS011;58877;51.992;4.504;2023-07-31T06:57:42;0.75;;;0.73;;
71176;SDS011;58877;51.992;4.504;2023-07-31T07:00:08;0.94;;;0.92;;
71176;SDS011;58877;51.992;4.504;2023-07-31T07:02:34;0.88;;;0.87;;
71176;SDS011;58877;51.992;4.504;2023-07-31T07:05:00;1.00;;;0.99;;
71176;SDS011;58877;51.992;4.504;2023-07-31T07:07:26;1.01;;;1.00;;
71176;SDS011;58877;51.992;4.504;2023-07-31T07:09:52;0.95;;;0.95;;
71176;SDS011;58877;51.992;4.504;2023-07-31T07:12:17;0.97;;;0.96;;
71176;SDS011;58877;51.992;4.504;2023-07-31T07:14:43;0.81;;;0.81;;
71176;SDS011;58877;51.992;4.504;2023-07-31T07:17:11;0.78;;;0.78;;
71176;SDS011;58877;51.992;4.504;2023-07-31T07:19:39;0.87;;;0.87;;
71176;SDS011;58877;51.992;4.504;2023-07-31T07:22:06;0.77;;;0.77;;
71176;SDS011;58877;51.992;4.504;2023-07-31T07:24:32;0.83;;;0.83;;
71176;SDS011;58877;51.992;4.504;2023-07-31T07:26:57;0.87;;;0.86;;
71176;SDS011;58877;51.992;4.504;2023-07-31T07:29:23;0.83;;;0.82;;
71176;SDS011;58877;51.992;4.504;2023-07-31T07:31:49;0.80;;;0.79;;
71176;SDS011;58877;51.992;4.504;2023-07-31T07:34:14;0.73;;;0.72;;
71176;SDS011;58877;51.992;4.504;2023-07-31T07:36:40;0.89;;;0.88;;
71176;SDS011;58877;51.992;4.504;2023-07-31T07:39:10;0.98;;;0.96;;
71176;SDS011;58877;51.992;4.504;2023-07-31T07:41:36;0.68;;;0.67;;
71176;SDS011;58877;51.992;4.504;2023-07-31T07:44:02;0.52;;;0.52;;
71176;SDS011;58877;51.992;4.504;2023-07-31T07:46:27;0.79;;;0.78;;
71176;SDS011;58877;51.992;4.504;2023-07-31T07:48:53;0.66;;;0.65;;
71176;SDS011;58877;51.992;4.504;2023-07-31T07:51:21;0.57;;;0.56;;
71176;SDS011;58877;51.992;4.504;2023-07-31T07:53:47;0.63;;;0.62;;
71176;SDS011;58877;51.992;4.504;2023-07-31T07:56:12;0.57;;;0.56;;
71176;SDS011;58877;51.992;4.504;2023-07-31T07:58:38;0.60;;;0.59;;
71176;SDS011;58877;51.992;4.504;2023-07-31T08:01:04;0.58;;;0.57;;
71176;SDS011;58877;51.992;4.504;2023-07-31T08:03:32;0.49;;;0.48;;
71176;SDS011;58877;51.992;4.504;2023-07-31T08:06:01;0.48;;;0.47;;
71176;SDS011;58877;51.992;4.504;2023-07-31T08:08:28;0.60;;;0.59;;
71176;SDS011;58877;51.992;4.504;2023-07-31T08:10:54;0.56;;;0.55;;
71176;SDS011;58877;51.992;4.504;2023-07-31T08:13:19;0.55;;;0.54;;
71176;SDS011;58877;51.992;4.504;2023-07-31T08:15:45;0.50;;;0.49;;
71176;SDS011;58877;51.992;4.504;2023-07-31T08:18:11;0.64;;;0.64;;
71176;SDS011;58877;51.992;4.504;2023-07-31T08:20:37;0.58;;;0.58;;
71176;SDS011;58877;51.992;4.504;2023-07-31T08:23:03;0.65;;;0.64;;
71176;SDS011;58877;51.992;4.504;2023-07-31T08:25:34;0.65;;;0.65;;
71176;SDS011;58877;51.992;4.504;2023-07-31T08:28:01;0.65;;;0.65;;
71176;SDS011;58877;51.992;4.504;2023-07-31T08:30:27;0.64;;;0.64;;
71176;SDS011;58877;51.992;4.504;2023-07-31T08:32:52;0.71;;;0.70;;
71176;SDS011;58877;51.992;4.504;2023-07-31T08:35:18;0.69;;;0.68;;
71176;SDS011;58877;51.992;4.504;2023-07-31T08:37:43;0.60;;;0.60;;
71176;SDS011;58877;51.992;4.504;2023-07-31T08:40:09;0.57;;;0.57;;
71176;SDS011;58877;51.992;4.504;2023-07-31T08:42:42;0.53;;;0.53;;
71176;SDS011;58877;51.992;4.504;2023-07-31T08:45:13;0.55;;;0.55;;
71176;SDS011;58877;51.992;4.504;2023-07-31T08:47:42;0.61;;;0.60;;
71176;SDS011;58877;51.992;4.504;2023-07-31T08:50:15;0.76;;;0.75;;
71176;SDS011;58877;51.992;4.504;2023-07-31T08:52:43;0.76;;;0.75;;
71176;SDS011;58877;51.992;4.504;2023-07-31T08:55:08;1.05;;;1.04;;
71176;SDS011;58877;51.992;4.504;2023-07-31T08:57:35;1.23;;;1.20;;
71176;SDS011;58877;51.992;4.504;2023-07-31T09:00:03;1.07;;;1.04;;
71176;SDS011;58877;51.992;4.504;2023-07-31T09:03:13;1.13;;;1.11;;
71176;SDS011;58877;51.992;4.504;2023-07-31T09:05:23;1.52;;;1.46;;
71176;SDS011;58877;51.992;4.504;2023-07-31T09:07:51;1.67;;;1.58;;
71176;SDS011;58877;51.992;4.504;2023-07-31T09:10:17;1.86;;;1.72;;
71176;SDS011;58877;51.992;4.504;2023-07-31T09:29:26;1.35;;;1.27;;
71176;SDS011;58877;51.992;4.504;2023-07-31T09:31:53;1.36;;;1.31;;
71176;SDS011;58877;51.992;4.504;2023-07-31T09:34:28;1.32;;;1.27;;
71176;SDS011;58877;51.992;4.504;2023-07-31T09:37:06;1.24;;;1.20;;
71176;SDS011;58877;51.992;4.504;2023-07-31T09:39:31;1.24;;;1.19;;
71176;SDS011;58877;51.992;4.504;2023-07-31T09:41:57;1.31;;;1.26;;
71176;SDS011;58877;51.992;4.504;2023-07-31T09:44:39;1.71;;;1.64;;
71176;SDS011;58877;51.992;4.504;2023-07-31T09:47:06;1.41;;;1.34;;
71176;SDS011;58877;51.992;4.504;2023-07-31T09:49:32;1.24;;;1.20;;
71176;SDS011;58877;51.992;4.504;2023-07-31T09:51:58;1.34;;;1.31;;
71176;SDS011;58877;51.992;4.504;2023-07-31T09:54:24;1.51;;;1.46;;
71176;SDS011;58877;51.992;4.504;2023-07-31T09:56:50;1.25;;;1.20;;
71176;SDS011;58877;51.992;4.504;2023-07-31T09:59:20;1.28;;;1.24;;
71176;SDS011;58877;51.992;4.504;2023-07-31T10:01:47;1.69;;;1.63;;
71176;SDS011;58877;51.992;4.504;2023-07-31T10:04:15;1.38;;;1.32;;
71176;SDS011;58877;51.992;4.504;2023-07-31T10:06:46;1.46;;;1.40;;
71176;SDS011;58877;51.992;4.504;2023-07-31T10:09:15;1.73;;;1.68;;
71176;SDS011;58877;51.992;4.504;2023-07-31T10:11:51;1.51;;;1.45;;
71176;SDS011;58877;51.992;4.504;2023-07-31T10:14:27;1.34;;;1.27;;
71176;SDS011;58877;51.992;4.504;2023-07-31T10:16:59;1.42;;;1.34;;
71176;SDS011;58877;51.992;4.504;2023-07-31T10:19:28;1.90;;;1.78;;
71176;SDS011;58877;51.992;4.504;2023-07-31T10:22:00;1.88;;;1.68;;
71176;SDS011;58877;51.992;4.504;2023-07-31T10:24:27;2.15;;;1.95;;
71176;SDS011;58877;51.992;4.504;2023-07-31T10:26:54;2.20;;;2.00;;
71176;SDS011;58877;51.992;4.504;2023-07-31T10:29:25;2.20;;;1.98;;
71176;SDS011;58877;51.992;4.504;2023-07-31T10:31:54;2.69;;;2.37;;
71176;SDS011;58877;51.992;4.504;2023-07-31T10:34:23;2.48;;;2.13;;
71176;SDS011;58877;51.992;4.504;2023-07-31T10:36:50;2.59;;;2.18;;
71176;SDS011;58877;51.992;4.504;2023-07-31T10:42:11;3.11;;;2.52;;
71176;SDS011;58877;51.992;4.504;2023-07-31T10:44:43;3.37;;;2.72;;
71176;SDS011;58877;51.992;4.504;2023-07-31T10:47:10;3.63;;;2.83;;
71176;SDS011;58877;51.992;4.504;2023-07-31T10:49:39;4.27;;;3.25;;
71176;SDS011;58877;51.992;4.504;2023-07-31T10:52:06;3.20;;;2.46;;
71176;SDS011;58877;51.992;4.504;2023-07-31T10:54:36;3.51;;;2.65;;
71176;SDS011;58877;51.992;4.504;2023-07-31T10:57:01;3.92;;;2.94;;
71176;SDS011;58877;51.992;4.504;2023-07-31T10:59:27;3.45;;;2.53;;
71176;SDS011;58877;51.992;4.504;2023-07-31T11:02:00;3.31;;;2.41;;
71176;SDS011;58877;51.992;4.504;2023-07-31T11:04:28;3.49;;;2.59;;
71176;SDS011;58877;51.992;4.504;2023-07-31T11:07:00;3.45;;;2.58;;
71176;SDS011;58877;51.992;4.504;2023-07-31T11:09:32;2.99;;;2.20;;
71176;SDS011;58877;51.992;4.504;2023-07-31T11:11:58;3.91;;;2.83;;
71176;SDS011;58877;51.992;4.504;2023-07-31T11:14:25;3.80;;;2.74;;
71176;SDS011;58877;51.992;4.504;2023-07-31T11:16:51;3.28;;;2.39;;
71176;SDS011;58877;51.992;4.504;2023-07-31T11:19:23;2.61;;;1.89;;
71176;SDS011;58877;51.992;4.504;2023-07-31T11:21:50;3.27;;;2.43;;
71176;SDS011;58877;51.992;4.504;2023-07-31T11:24:18;3.40;;;2.57;;
71176;SDS011;58877;51.992;4.504;2023-07-31T11:26:51;2.93;;;2.26;;
71176;SDS011;58877;51.992;4.504;2023-07-31T11:29:17;2.66;;;2.06;;
71176;SDS011;58877;51.992;4.504;2023-07-31T11:31:44;3.30;;;2.58;;
71176;SDS011;58877;51.992;4.504;2023-07-31T11:34:10;2.70;;;2.07;;
71176;SDS011;58877;51.992;4.504;2023-07-31T11:36:35;3.01;;;2.29;;
71176;SDS011;58877;51.992;4.504;2023-07-31T11:39:05;2.60;;;2.03;;
71176;SDS011;58877;51.992;4.504;2023-07-31T11:41:34;2.59;;;2.04;;
71176;SDS011;58877;51.992;4.504;2023-07-31T11:44:00;3.19;;;2.55;;
71176;SDS011;58877;51.992;4.504;2023-07-31T11:46:26;2.74;;;2.20;;
71176;SDS011;58877;51.992;4.504;2023-07-31T11:48:52;3.10;;;2.45;;
71176;SDS011;58877;51.992;4.504;2023-07-31T11:51:25;3.39;;;2.75;;
71176;SDS011;58877;51.992;4.504;2023-07-31T11:53:56;2.98;;;2.43;;
71176;SDS011;58877;51.992;4.504;2023-07-31T11:56:24;2.79;;;2.36;;
71176;SDS011;58877;51.992;4.504;2023-07-31T11:58:56;2.64;;;2.29;;
71176;SDS011;58877;51.992;4.504;2023-07-31T12:01:24;2.09;;;1.85;;
71176;SDS011;58877;51.992;4.504;2023-07-31T12:03:52;2.07;;;1.82;;
71176;SDS011;58877;51.992;4.504;2023-07-31T12:06:19;2.52;;;2.21;;
71176;SDS011;58877;51.992;4.504;2023-07-31T12:08:46;2.10;;;1.89;;
71176;SDS011;58877;51.992;4.504;2023-07-31T12:11:12;2.06;;;1.90;;
71176;SDS011;58877;51.992;4.504;2023-07-31T12:13:42;2.04;;;1.91;;
71176;SDS011;58877;51.992;4.504;2023-07-31T12:16:08;1.93;;;1.80;;
71176;SDS011;58877;51.992;4.504;2023-07-31T12:18:37;2.26;;;2.12;;
71176;SDS011;58877;51.992;4.504;2023-07-31T12:21:05;2.22;;;2.05;;
71176;SDS011;58877;51.992;4.504;2023-07-31T12:23:35;2.15;;;1.99;;
71176;SDS011;58877;51.992;4.504;2023-07-31T12:28:35;2.28;;;2.15;;
71176;SDS011;58877;51.992;4.504;2023-07-31T12:31:09;2.14;;;2.01;;
71176;SDS011;58877;51.992;4.504;2023-07-31T12:33:40;2.34;;;2.20;;
71176;SDS011;58877;51.992;4.504;2023-07-31T12:36:08;1.92;;;1.82;;
71176;SDS011;58877;51.992;4.504;2023-07-31T12:38:35;2.08;;;1.98;;
71176;SDS011;58877;51.992;4.504;2023-07-31T12:41:02;2.42;;;2.31;;
71176;SDS011;58877;51.992;4.504;2023-07-31T12:43:28;2.17;;;2.07;;
71176;SDS011;58877;51.992;4.504;2023-07-31T12:45:54;2.51;;;2.38;;
71176;SDS011;58877;51.992;4.504;2023-07-31T12:48:21;2.36;;;2.23;;
71176;SDS011;58877;51.992;4.504;2023-07-31T12:50:50;1.92;;;1.80;;
71176;SDS011;58877;51.992;4.504;2023-07-31T12:53:16;1.93;;;1.83;;
71176;SDS011;58877;51.992;4.504;2023-07-31T12:55:42;1.49;;;1.47;;
71176;SDS011;58877;51.992;4.504;2023-07-31T12:58:08;1.12;;;1.11;;
71176;SDS011;58877;51.992;4.504;2023-07-31T13:00:34;1.42;;;1.42;;
71176;SDS011;58877;51.992;4.504;2023-07-31T13:03:00;1.29;;;1.29;;
71176;SDS011;58877;51.992;4.504;2023-07-31T13:05:27;1.35;;;1.35;;
71176;SDS011;58877;51.992;4.504;2023-07-31T13:07:53;1.46;;;1.46;;
71176;SDS011;58877;51.992;4.504;2023-07-31T13:10:19;1.57;;;1.57;;
71176;SDS011;58877;51.992;4.504;2023-07-31T13:12:45;1.38;;;1.38;;
71176;SDS011;58877;51.992;4.504;2023-07-31T13:15:11;1.17;;;1.17;;
71176;SDS011;58877;51.992;4.504;2023-07-31T13:17:37;1.30;;;1.30;;
71176;SDS011;58877;51.992;4.504;2023-07-31T13:20:03;1.27;;;1.27;;
71176;SDS011;58877;51.992;4.504;2023-07-31T13:22:30;1.10;;;1.10;;
71176;SDS011;58877;51.992;4.504;2023-07-31T13:24:56;1.24;;;1.24;;
71176;SDS011;58877;51.992;4.504;2023-07-31T13:27:22;1.18;;;1.18;;
71176;SDS011;58877;51.992;4.504;2023-07-31T13:29:49;0.70;;;0.70;;
71176;SDS011;58877;51.992;4.504;2023-07-31T13:32:17;0.92;;;0.92;;
71176;SDS011;58877;51.992;4.504;2023-07-31T13:34:45;0.77;;;0.77;;
71176;SDS011;58877;51.992;4.504;2023-07-31T13:37:11;0.77;;;0.77;;
71176;SDS011;58877;51.992;4.504;2023-07-31T13:39:38;0.71;;;0.70;;
71176;SDS011;58877;51.992;4.504;2023-07-31T13:42:06;0.62;;;0.61;;
71176;SDS011;58877;51.992;4.504;2023-07-31T13:44:38;0.65;;;0.64;;
71176;SDS011;58877;51.992;4.504;2023-07-31T13:47:04;0.80;;;0.79;;
71176;SDS011;58877;51.992;4.504;2023-07-31T13:49:30;0.75;;;0.74;;
71176;SDS011;58877;51.992;4.504;2023-07-31T13:51:57;0.80;;;0.79;;
71176;SDS011;58877;51.992;4.504;2023-07-31T13:54:23;0.70;;;0.69;;
71176;SDS011;58877;51.992;4.504;2023-07-31T13:56:49;0.57;;;0.56;;
71176;SDS011;58877;51.992;4.504;2023-07-31T13:59:15;0.61;;;0.61;;
71176;SDS011;58877;51.992;4.504;2023-07-31T14:01:42;0.46;;;0.46;;
71176;SDS011;58877;51.992;4.504;2023-07-31T14:04:08;0.59;;;0.59;;
71176;SDS011;58877;51.992;4.504;2023-07-31T14:06:34;0.45;;;0.45;;
71176;SDS011;58877;51.992;4.504;2023-07-31T14:09:00;0.47;;;0.47;;
71176;SDS011;58877;51.992;4.504;2023-07-31T14:11:28;0.40;;;0.40;;
71176;SDS011;58877;51.992;4.504;2023-07-31T14:13:56;0.54;;;0.54;;
71176;SDS011;58877;51.992;4.504;2023-07-31T14:16:21;0.56;;;0.56;;
71176;SDS011;58877;51.992;4.504;2023-07-31T14:18:47;0.35;;;0.35;;
71176;SDS011;58877;51.992;4.504;2023-07-31T14:21:13;0.56;;;0.56;;
71176;SDS011;58877;51.992;4.504;2023-07-31T14:23:39;0.59;;;0.59;;
71176;SDS011;58877;51.992;4.504;2023-07-31T14:26:06;0.45;;;0.45;;
71176;SDS011;58877;51.992;4.504;2023-07-31T14:28:32;0.55;;;0.55;;
71176;SDS011;58877;51.992;4.504;2023-07-31T14:30:57;0.50;;;0.50;;
71176;SDS011;58877;51.992;4.504;2023-07-31T14:33:24;0.56;;;0.56;;
71176;SDS011;58877;51.992;4.504;2023-07-31T14:35:49;0.51;;;0.51;;
71176;SDS011;58877;51.992;4.504;2023-07-31T14:38:17;0.49;;;0.49;;
71176;SDS011;58877;51.992;4.504;2023-07-31T14:40:43;0.64;;;0.64;;
71176;SDS011;58877;51.992;4.504;2023-07-31T14:43:09;0.43;;;0.43;;
71176;SDS011;58877;51.992;4.504;2023-07-31T14:45:35;0.49;;;0.49;;
71176;SDS011;58877;51.992;4.504;2023-07-31T14:48:01;0.51;;;0.51;;
71176;SDS011;58877;51.992;4.504;2023-07-31T14:50:26;0.56;;;0.56;;
71176;SDS011;58877;51.992;4.504;2023-07-31T14:52:52;0.54;;;0.54;;
71176;SDS011;58877;51.992;4.504;2023-07-31T14:55:18;0.56;;;0.56;;
71176;SDS011;58877;51.992;4.504;2023-07-31T14:57:44;0.53;;;0.53;;
71176;SDS011;58877;51.992;4.504;2023-07-31T15:00:10;0.69;;;0.69;;
71176;SDS011;58877;51.992;4.504;2023-07-31T15:02:37;0.72;;;0.72;;
71176;SDS011;58877;51.992;4.504;2023-07-31T15:05:03;0.72;;;0.72;;
71176;SDS011;58877;51.992;4.504;2023-07-31T15:07:29;0.59;;;0.59;;
71176;SDS011;58877;51.992;4.504;2023-07-31T15:09:55;0.64;;;0.64;;
71176;SDS011;58877;51.992;4.504;2023-07-31T15:12:21;0.72;;;0.72;;
71176;SDS011;58877;51.992;4.504;2023-07-31T15:14:48;0.75;;;0.75;;
71176;SDS011;58877;51.992;4.504;2023-07-31T15:17:15;0.86;;;0.86;;
71176;SDS011;58877;51.992;4.504;2023-07-31T15:19:41;0.56;;;0.56;;
71176;SDS011;58877;51.992;4.504;2023-07-31T15:22:06;0.70;;;0.70;;